Time;durP1;ratioP1;P1;durP2;ratioP2;P2;SDS_P1;SDS_P2;PMS_P1;PMS_P2;Temp;Humidity;BMP_temperature;BMP_pressure;BME280_temperature;BME280_humidity;BME280_pressure;Samples;Min_cycle;Max_cycle;Signal;HPM_P1;HPM_P2
2023/06/03 00:02:06;;;;;;;7.28;2.72;;;;;;;;;;4912483;29;20031;-78
2023/06/03 00:04:31;;;;;;;6.03;2.53;;;;;;;;;;4923532;29;20042;-79
2023/06/03 00:06:57;;;;;;;10.43;2.50;;;;;;;;;;4919430;29;20047;-79
2023/06/03 00:09:23;;;;;;;4.10;2.15;;;;;;;;;;4927646;29;20057;-79
2023/06/03 00:11:48;;;;;;;4.10;2.20;;;;;;;;;;4928924;29;20028;-79
2023/06/03 00:14:14;;;;;;;6.80;3.05;;;;;;;;;;4928734;29;20028;-79
2023/06/03 00:16:45;;;;;;;14.55;3.10;;;;;;;;;;4913586;29;20581;-80
2023/06/03 00:19:14;;;;;;;5.03;2.22;;;;;;;;;;4917541;29;20062;-79
2023/06/03 00:21:49;;;;;;;7.72;2.80;;;;;;;;;;4924769;29;20015;-79
2023/06/03 00:24:19;;;;;;;13.80;3.47;;;;;;;;;;4922057;29;20123;-79
2023/06/03 00:26:45;;;;;;;4.85;2.40;;;;;;;;;;4905856;29;20119;-79
2023/06/03 00:29:10;;;;;;;5.47;2.10;;;;;;;;;;4929133;29;20055;-79
2023/06/03 00:31:35;;;;;;;7.20;2.47;;;;;;;;;;4933045;29;20070;-79
2023/06/03 00:34:01;;;;;;;4.38;2.15;;;;;;;;;;4923653;29;20027;-79
2023/06/03 00:36:26;;;;;;;6.90;2.30;;;;;;;;;;4920855;29;20027;-78
2023/06/03 00:38:51;;;;;;;6.65;2.63;;;;;;;;;;4927501;29;20027;-78
2023/06/03 00:41:19;;;;;;;10.13;2.55;;;;;;;;;;4928223;29;20024;-78
2023/06/03 00:43:44;;;;;;;6.30;3.15;;;;;;;;;;4929051;29;20031;-79
2023/06/03 00:46:10;;;;;;;7.65;2.60;;;;;;;;;;4911178;29;20031;-79
2023/06/03 00:48:37;;;;;;;8.48;3.00;;;;;;;;;;4922617;29;20110;-78
2023/06/03 00:51:03;;;;;;;6.03;2.42;;;;;;;;;;4923682;29;20024;-78
2023/06/03 00:53:28;;;;;;;12.52;3.03;;;;;;;;;;4927557;29;20434;-78
2023/06/03 00:55:53;;;;;;;7.88;2.88;;;;;;;;;;4918424;29;20032;-78
2023/06/03 00:58:19;;;;;;;7.82;2.55;;;;;;;;;;4918360;29;20020;-78
2023/06/03 01:00:44;;;;;;;7.35;2.45;;;;;;;;;;4918290;29;20034;-78
2023/06/03 01:03:13;;;;;;;5.93;2.50;;;;;;;;;;4917077;29;20483;-78
2023/06/03 01:05:45;;;;;;;6.25;2.58;;;;;;;;;;4896342;29;20039;-79
2023/06/03 01:08:26;;;;;;;5.10;2.85;;;;;;;;;;4933503;29;20047;-79
2023/06/03 01:11:07;;;;;;;7.72;2.70;;;;;;;;;;4927575;29;20027;-79
2023/06/03 01:13:43;;;;;;;6.72;2.35;;;;;;;;;;4925383;29;20099;-79
2023/06/03 01:16:11;;;;;;;6.88;2.13;;;;;;;;;;4919766;29;20028;-78
2023/06/03 01:18:38;;;;;;;7.60;2.50;;;;;;;;;;4934517;29;20051;-79
2023/06/03 01:21:05;;;;;;;10.27;3.53;;;;;;;;;;4931715;29;20032;-79
2023/06/03 01:23:33;;;;;;;11.27;2.65;;;;;;;;;;4938720;29;20092;-80
2023/06/03 01:26:01;;;;;;;8.68;2.45;;;;;;;;;;4927682;29;20047;-79
2023/06/03 01:28:28;;;;;;;8.18;2.70;;;;;;;;;;4921070;29;20020;-78
2023/06/03 01:30:58;;;;;;;12.82;2.78;;;;;;;;;;4914057;29;20106;-78
2023/06/03 01:33:25;;;;;;;6.32;2.70;;;;;;;;;;4928464;29;20107;-79
2023/06/03 01:35:53;;;;;;;11.52;2.95;;;;;;;;;;4926486;29;20035;-79
2023/06/03 01:38:18;;;;;;;7.95;2.78;;;;;;;;;;4924071;29;20036;-78
2023/06/03 01:40:45;;;;;;;9.57;3.08;;;;;;;;;;4922023;29;20030;-78
2023/06/03 01:43:11;;;;;;;5.93;2.75;;;;;;;;;;4926730;29;20454;-79
2023/06/03 01:45:36;;;;;;;7.70;2.55;;;;;;;;;;4922493;29;20058;-79
2023/06/03 01:48:02;;;;;;;9.73;3.08;;;;;;;;;;4925720;29;20073;-78
2023/06/03 01:50:27;;;;;;;6.57;2.58;;;;;;;;;;4931908;29;20051;-78
2023/06/03 01:52:53;;;;;;;5.10;2.60;;;;;;;;;;4938252;29;20051;-80
2023/06/03 01:55:18;;;;;;;5.40;2.83;;;;;;;;;;4931093;29;20527;-79
2023/06/03 01:57:43;;;;;;;9.07;2.58;;;;;;;;;;4932562;29;20024;-79
2023/06/03 02:00:10;;;;;;;8.68;3.08;;;;;;;;;;4919159;29;20055;-79
2023/06/03 02:02:36;;;;;;;8.35;2.75;;;;;;;;;;4924525;29;20020;-79
2023/06/03 02:05:03;;;;;;;5.63;2.92;;;;;;;;;;4923150;29;20033;-79
2023/06/03 02:07:30;;;;;;;4.38;2.60;;;;;;;;;;4923406;29;20796;-79
2023/06/03 02:09:56;;;;;;;7.75;2.70;;;;;;;;;;4919664;29;20031;-78
2023/06/03 02:12:23;;;;;;;10.00;2.97;;;;;;;;;;4921325;29;20028;-78
2023/06/03 02:14:53;;;;;;;4.38;2.25;;;;;;;;;;4920991;29;20051;-80
2023/06/03 02:17:20;;;;;;;7.88;3.45;;;;;;;;;;4922507;29;20142;-79
2023/06/03 02:19:46;;;;;;;11.65;2.80;;;;;;;;;;4918684;29;20040;-79
2023/06/03 02:22:13;;;;;;;7.63;2.95;;;;;;;;;;4919594;29;20028;-79
2023/06/03 02:24:38;;;;;;;7.38;2.65;;;;;;;;;;4918586;29;20042;-80
2023/06/03 02:27:04;;;;;;;9.18;3.08;;;;;;;;;;4915156;29;20028;-79
2023/06/03 02:29:30;;;;;;;8.95;3.17;;;;;;;;;;4898510;29;20115;-79
2023/06/03 02:31:57;;;;;;;5.93;3.10;;;;;;;;;;4931290;29;20435;-80
2023/06/03 02:34:22;;;;;;;9.00;3.35;;;;;;;;;;4923847;29;20027;-79
2023/06/03 02:36:48;;;;;;;3.95;2.45;;;;;;;;;;4913185;29;20046;-80
2023/06/03 02:39:14;;;;;;;4.70;2.38;;;;;;;;;;4921560;29;20028;-80
2023/06/03 02:41:43;;;;;;;6.45;2.40;;;;;;;;;;4915007;29;20024;-79
2023/06/03 02:44:09;;;;;;;7.72;3.38;;;;;;;;;;4912715;29;20046;-80
2023/06/03 02:46:34;;;;;;;9.32;3.30;;;;;;;;;;4914301;29;20102;-79
2023/06/03 02:49:03;;;;;;;9.07;3.17;;;;;;;;;;4919731;29;20070;-79
2023/06/03 02:51:29;;;;;;;7.40;3.30;;;;;;;;;;4924275;29;20091;-80
2023/06/03 02:53:54;;;;;;;7.57;2.92;;;;;;;;;;4938096;29;20032;-78
2023/06/03 02:56:22;;;;;;;10.45;3.35;;;;;;;;;;4924581;29;20032;-79
2023/06/03 02:58:50;;;;;;;6.47;2.83;;;;;;;;;;4920396;29;20424;-79
2023/06/03 03:01:18;;;;;;;9.45;3.15;;;;;;;;;;4924160;29;20032;-79
2023/06/03 03:03:43;;;;;;;8.48;3.10;;;;;;;;;;4932683;29;20091;-78
2023/06/03 03:06:14;;;;;;;4.88;3.40;;;;;;;;;;4923426;29;20032;-78
2023/06/03 03:08:39;;;;;;;7.50;2.63;;;;;;;;;;4918378;29;20051;-77
2023/06/03 03:11:06;;;;;;;10.27;3.97;;;;;;;;;;4918311;29;20064;-78
2023/06/03 03:13:31;;;;;;;6.95;3.30;;;;;;;;;;4917141;29;20591;-78
2023/06/03 03:15:56;;;;;;;7.65;2.60;;;;;;;;;;4916065;29;20119;-78
2023/06/03 03:18:22;;;;;;;7.88;3.00;;;;;;;;;;4898762;29;20027;-78
2023/06/03 03:20:47;;;;;;;3.88;2.38;;;;;;;;;;4912814;29;20051;-78
2023/06/03 03:23:13;;;;;;;5.53;2.97;;;;;;;;;;4917693;29;20489;-79
2023/06/03 03:25:40;;;;;;;8.10;2.53;;;;;;;;;;4891094;29;20039;-80
2023/06/03 03:28:06;;;;;;;5.78;2.72;;;;;;;;;;4919928;29;20028;-80
2023/06/03 03:30:31;;;;;;;7.05;2.95;;;;;;;;;;4931509;29;20538;-80
2023/06/03 03:32:58;;;;;;;5.82;3.00;;;;;;;;;;4927731;29;20112;-79
2023/06/03 03:35:25;;;;;;;5.85;3.10;;;;;;;;;;4915772;29;20411;-78
2023/06/03 03:38:02;;;;;;;6.20;2.95;;;;;;;;;;4909816;29;20049;-80
2023/06/03 03:40:33;;;;;;;7.78;3.35;;;;;;;;;;4920107;29;20501;-79
2023/06/03 03:42:59;;;;;;;8.98;3.10;;;;;;;;;;4924908;29;20042;-79
2023/06/03 03:45:31;;;;;;;4.28;2.70;;;;;;;;;;4918851;29;20036;-79
2023/06/03 03:48:02;;;;;;;7.18;3.17;;;;;;;;;;4917908;29;20071;-78
2023/06/03 03:50:33;;;;;;;15.65;3.42;;;;;;;;;;4920758;29;20032;-79
2023/06/03 03:53:03;;;;;;;5.82;2.90;;;;;;;;;;4936550;29;20425;-78
2023/06/03 03:55:28;;;;;;;6.57;3.00;;;;;;;;;;4919699;29;20051;-80
2023/06/03 03:57:54;;;;;;;9.73;3.30;;;;;;;;;;4936134;29;20036;-79
2023/06/03 04:00:21;;;;;;;5.82;2.60;;;;;;;;;;4917511;29;20035;-79
2023/06/03 04:02:49;;;;;;;8.38;2.97;;;;;;;;;;4921712;29;20024;-78
2023/06/03 04:05:16;;;;;;;7.60;3.10;;;;;;;;;;4921503;29;20028;-78
2023/06/03 04:07:43;;;;;;;4.93;2.97;;;;;;;;;;4927914;29;20111;-78
2023/06/03 04:10:09;;;;;;;8.45;3.13;;;;;;;;;;4920577;29;20060;-78
2023/06/03 04:12:38;;;;;;;4.07;2.60;;;;;;;;;;4920539;29;20699;-78
2023/06/03 04:15:04;;;;;;;7.13;2.90;;;;;;;;;;4920760;29;20084;-79
2023/06/03 04:17:30;;;;;;;6.72;3.42;;;;;;;;;;4919232;29;20032;-78
2023/06/03 04:19:56;;;;;;;5.70;2.78;;;;;;;;;;4923533;29;20514;-78
2023/06/03 04:22:24;;;;;;;7.75;3.13;;;;;;;;;;4933448;29;20046;-78
2023/06/03 04:24:57;;;;;;;10.20;3.15;;;;;;;;;;4916332;29;20039;-79
2023/06/03 04:27:24;;;;;;;8.60;3.53;;;;;;;;;;4918416;29;20031;-78
2023/06/03 04:29:49;;;;;;;7.55;3.00;;;;;;;;;;4918694;29;20064;-78
2023/06/03 04:32:15;;;;;;;9.50;3.15;;;;;;;;;;4919281;29;20032;-79
2023/06/03 04:34:53;;;;;;;11.10;3.05;;;;;;;;;;4919391;29;20028;-78
2023/06/03 04:37:20;;;;;;;6.40;2.90;;;;;;;;;;4922628;29;20120;-78
2023/06/03 04:39:46;;;;;;;4.22;2.72;;;;;;;;;;4921730;29;20396;-79
2023/06/03 04:42:12;;;;;;;9.07;3.17;;;;;;;;;;4915986;29;20036;-78
2023/06/03 04:44:41;;;;;;;8.38;2.95;;;;;;;;;;4927421;29;20036;-79
2023/06/03 04:47:10;;;;;;;7.35;2.72;;;;;;;;;;4928223;29;20502;-78
2023/06/03 04:49:39;;;;;;;8.50;2.25;;;;;;;;;;4922387;29;20507;-79
2023/06/03 04:52:09;;;;;;;6.63;2.92;;;;;;;;;;4929184;29;20145;-78
2023/06/03 04:54:36;;;;;;;6.53;3.03;;;;;;;;;;4922445;29;20604;-78
2023/06/03 04:57:01;;;;;;;8.13;3.17;;;;;;;;;;4927632;29;20039;-79
2023/06/03 04:59:27;;;;;;;10.50;3.53;;;;;;;;;;4920045;29;20529;-78
2023/06/03 05:01:52;;;;;;;9.48;3.35;;;;;;;;;;4928783;29;20036;-79
2023/06/03 05:04:19;;;;;;;10.50;3.13;;;;;;;;;;4923872;29;20046;-78
2023/06/03 05:06:46;;;;;;;7.95;3.30;;;;;;;;;;4930751;29;20028;-79
2023/06/03 05:09:12;;;;;;;8.95;3.35;;;;;;;;;;4921096;29;20084;-78
2023/06/03 05:11:38;;;;;;;9.35;3.17;;;;;;;;;;4924286;29;20099;-79
2023/06/03 05:14:03;;;;;;;10.85;2.95;;;;;;;;;;4915042;29;20037;-78
2023/06/03 05:16:28;;;;;;;12.10;3.33;;;;;;;;;;4935287;29;20035;-79
2023/06/03 05:18:53;;;;;;;7.63;2.90;;;;;;;;;;4924483;29;20028;-79
2023/06/03 05:21:19;;;;;;;5.30;2.90;;;;;;;;;;4921070;29;20043;-80
2023/06/03 05:23:45;;;;;;;12.88;3.92;;;;;;;;;;4921038;29;20032;-79
2023/06/03 05:26:10;;;;;;;8.55;2.97;;;;;;;;;;4921295;29;20044;-79
2023/06/03 05:28:36;;;;;;;11.50;3.17;;;;;;;;;;4922408;29;20028;-79
2023/06/03 05:31:01;;;;;;;7.55;2.88;;;;;;;;;;4930425;29;20054;-79
2023/06/03 05:33:28;;;;;;;5.70;2.60;;;;;;;;;;4931324;29;20051;-78
2023/06/03 05:35:53;;;;;;;6.28;2.80;;;;;;;;;;4918872;29;20032;-79
2023/06/03 05:38:20;;;;;;;8.35;3.22;;;;;;;;;;4925606;29;20054;-79
2023/06/03 05:40:47;;;;;;;5.22;2.70;;;;;;;;;;4925463;29;20043;-78
2023/06/03 05:43:13;;;;;;;9.43;2.83;;;;;;;;;;4936785;29;20483;-78
2023/06/03 05:45:38;;;;;;;6.15;3.15;;;;;;;;;;4909935;29;20032;-78
2023/06/03 05:48:04;;;;;;;7.45;3.40;;;;;;;;;;4919216;29;20028;-78
2023/06/03 05:50:29;;;;;;;6.00;3.05;;;;;;;;;;4923765;29;20040;-78
2023/06/03 05:52:55;;;;;;;7.60;2.78;;;;;;;;;;4935946;29;20032;-78
2023/06/03 05:55:20;;;;;;;7.00;3.42;;;;;;;;;;4923853;29;20070;-79
2023/06/03 05:57:46;;;;;;;7.75;2.55;;;;;;;;;;4922365;29;20024;-79
2023/06/03 06:00:11;;;;;;;5.47;2.92;;;;;;;;;;4929349;29;20040;-78
2023/06/03 06:02:37;;;;;;;10.55;2.85;;;;;;;;;;4929407;29;20034;-80
2023/06/03 06:05:03;;;;;;;6.35;2.78;;;;;;;;;;4926697;29;20043;-79
2023/06/03 06:07:29;;;;;;;4.38;2.70;;;;;;;;;;4928447;29;20035;-79
2023/06/03 06:09:54;;;;;;;7.55;2.67;;;;;;;;;;4925783;29;20028;-78
2023/06/03 06:12:19;;;;;;;11.25;3.50;;;;;;;;;;4923893;29;20032;-79
2023/06/03 06:14:45;;;;;;;8.40;2.90;;;;;;;;;;4920507;29;20024;-79
2023/06/03 06:17:10;;;;;;;5.70;3.15;;;;;;;;;;4907403;29;20038;-79
2023/06/03 06:19:36;;;;;;;5.85;2.67;;;;;;;;;;4940992;29;20035;-80
2023/06/03 06:22:02;;;;;;;10.45;3.03;;;;;;;;;;4944492;29;20067;-80
2023/06/03 06:24:27;;;;;;;9.05;3.70;;;;;;;;;;4930596;29;20032;-79
2023/06/03 06:26:53;;;;;;;7.32;2.63;;;;;;;;;;4923816;29;20027;-79
2023/06/03 06:29:19;;;;;;;12.25;3.10;;;;;;;;;;4928815;29;20082;-79
2023/06/03 06:31:44;;;;;;;7.97;3.00;;;;;;;;;;4922884;29;20031;-79
2023/06/03 06:34:15;;;;;;;6.50;2.72;;;;;;;;;;4931488;29;20156;-78
2023/06/03 06:36:52;;;;;;;10.60;2.70;;;;;;;;;;4910078;29;20036;-79
2023/06/03 06:39:34;;;;;;;7.45;2.95;;;;;;;;;;4925627;29;20025;-79
2023/06/03 06:42:10;;;;;;;9.88;2.90;;;;;;;;;;4916962;29;20054;-79
2023/06/03 06:44:49;;;;;;;6.30;2.85;;;;;;;;;;4917533;29;20059;-78
2023/06/03 06:47:21;;;;;;;8.10;2.85;;;;;;;;;;4918228;29;20714;-78
2023/06/03 06:49:46;;;;;;;;;;;;;;;;;;4916973;29;20337;-78
2023/06/03 06:52:13;;;;;;;8.25;2.63;;;;;;;;;;4919212;29;19922;-79
2023/06/03 06:54:40;;;;;;;7.40;3.05;;;;;;;;;;4916618;29;20066;-79
2023/06/03 06:57:05;;;;;;;6.97;2.97;;;;;;;;;;4927249;29;20806;-78
2023/06/03 06:59:31;;;;;;;6.93;2.78;;;;;;;;;;4915429;29;20059;-79
2023/06/03 07:01:56;;;;;;;15.15;3.33;;;;;;;;;;4928848;29;20020;-80
2023/06/03 07:04:22;;;;;;;7.43;2.60;;;;;;;;;;4916776;29;20032;-79
2023/06/03 07:06:47;;;;;;;7.18;3.00;;;;;;;;;;4920247;29;20020;-78
2023/06/03 07:09:12;;;;;;;7.20;3.03;;;;;;;;;;4936259;29;20024;-78
2023/06/03 07:11:46;;;;;;;6.55;3.13;;;;;;;;;;4929702;29;20187;-79
2023/06/03 07:14:12;;;;;;;8.63;2.60;;;;;;;;;;4917402;29;20547;-79
2023/06/03 07:16:38;;;;;;;7.70;2.92;;;;;;;;;;4937113;29;20447;-78
2023/06/03 07:19:05;;;;;;;5.97;2.78;;;;;;;;;;4928937;29;20032;-79
2023/06/03 07:21:32;;;;;;;10.20;2.50;;;;;;;;;;4931937;29;20047;-78
2023/06/03 07:23:58;;;;;;;4.85;2.78;;;;;;;;;;4902113;29;20124;-78
2023/06/03 07:26:26;;;;;;;7.97;3.03;;;;;;;;;;4924892;29;20047;-80
2023/06/03 07:28:51;;;;;;;9.05;2.65;;;;;;;;;;4923505;29;20040;-79
2023/06/03 07:31:17;;;;;;;6.22;2.85;;;;;;;;;;4934115;29;20020;-78
2023/06/03 07:33:53;;;;;;;6.53;2.95;;;;;;;;;;4927039;29;20034;-79
2023/06/03 07:36:24;;;;;;;6.78;2.58;;;;;;;;;;4936827;29;20027;-78
2023/06/03 07:39:06;;;;;;;10.18;2.88;;;;;;;;;;4914313;29;20315;-79
2023/06/03 07:41:36;;;;;;;9.15;3.00;;;;;;;;;;4926805;29;20051;-78
2023/06/03 07:44:05;;;;;;;8.05;2.70;;;;;;;;;;4926565;29;20036;-79
2023/06/03 07:46:45;;;;;;;13.98;3.78;;;;;;;;;;4920380;29;20395;-79
2023/06/03 07:49:13;;;;;;;13.48;2.97;;;;;;;;;;4924937;29;20051;-78
2023/06/03 07:51:41;;;;;;;7.13;2.80;;;;;;;;;;4929147;29;20099;-78
2023/06/03 07:54:06;;;;;;;7.70;2.75;;;;;;;;;;4930996;29;20032;-77
2023/06/03 07:56:33;;;;;;;6.32;2.90;;;;;;;;;;4934578;29;20024;-77
2023/06/03 07:59:00;;;;;;;5.90;2.55;;;;;;;;;;4929861;29;20031;-79
2023/06/03 08:01:26;;;;;;;10.98;3.30;;;;;;;;;;4909183;29;20459;-78
2023/06/03 08:03:52;;;;;;;8.10;2.80;;;;;;;;;;4934161;29;20035;-78
2023/06/03 08:06:19;;;;;;;4.43;2.53;;;;;;;;;;4937948;29;20027;-78
2023/06/03 08:08:44;;;;;;;8.25;2.72;;;;;;;;;;4922195;29;20035;-78
2023/06/03 08:11:10;;;;;;;8.27;2.72;;;;;;;;;;4934705;29;20091;-77
2023/06/03 08:13:36;;;;;;;8.70;2.85;;;;;;;;;;4926779;29;20028;-79
2023/06/03 08:16:02;;;;;;;10.57;3.03;;;;;;;;;;4923088;29;20036;-78
2023/06/03 08:18:54;;;;;;;8.07;3.35;;;;;;;;;;4927297;29;20035;-78
2023/06/03 08:21:26;;;;;;;6.75;2.92;;;;;;;;;;4930715;29;20470;-79
2023/06/03 08:23:52;;;;;;;6.00;2.88;;;;;;;;;;4924390;29;20047;-79
2023/06/03 08:26:17;;;;;;;5.28;2.55;;;;;;;;;;4939663;29;20032;-79
2023/06/03 08:28:43;;;;;;;6.15;3.20;;;;;;;;;;4934057;29;20047;-79
2023/06/03 08:31:09;;;;;;;7.38;2.25;;;;;;;;;;4935697;29;20047;-78
2023/06/03 08:33:34;;;;;;;5.45;2.45;;;;;;;;;;4920932;29;20091;-78
2023/06/03 08:36:00;;;;;;;5.13;2.72;;;;;;;;;;4927593;29;20038;-77
2023/06/03 08:38:25;;;;;;;6.28;2.90;;;;;;;;;;4937020;29;20091;-79
2023/06/03 08:40:51;;;;;;;9.05;3.30;;;;;;;;;;4908918;29;20050;-79
2023/06/03 08:43:20;;;;;;;6.45;3.15;;;;;;;;;;4933213;29;20038;-78
2023/06/03 08:45:55;;;;;;;4.53;2.60;;;;;;;;;;4940610;29;20028;-79
2023/06/03 08:48:49;;;;;;;10.68;3.05;;;;;;;;;;4926943;29;20099;-80
2023/06/03 08:51:16;;;;;;;5.15;2.72;;;;;;;;;;4916475;29;20047;-79
2023/06/03 08:53:49;;;;;;;5.53;2.88;;;;;;;;;;4936251;29;20086;-79
2023/06/03 08:56:19;;;;;;;7.88;2.58;;;;;;;;;;4910942;29;20038;-78
2023/06/03 08:58:55;;;;;;;7.13;2.97;;;;;;;;;;4931572;29;20047;-78
2023/06/03 09:01:29;;;;;;;9.50;2.90;;;;;;;;;;4908122;29;20044;-79
2023/06/03 09:03:55;;;;;;;17.92;3.40;;;;;;;;;;4881673;29;20039;-78
2023/06/03 09:06:21;;;;;;;6.32;2.88;;;;;;;;;;4920411;29;20032;-78
2023/06/03 09:08:50;;;;;;;7.95;3.00;;;;;;;;;;4915308;29;20052;-78
2023/06/03 09:11:16;;;;;;;8.27;3.35;;;;;;;;;;4918065;29;20032;-78
2023/06/03 09:13:42;;;;;;;10.45;2.88;;;;;;;;;;4922913;29;20020;-78
2023/06/03 09:16:09;;;;;;;9.70;3.47;;;;;;;;;;4923028;29;20118;-78
2023/06/03 09:18:34;;;;;;;3.38;2.50;;;;;;;;;;4919669;29;20047;-78
2023/06/03 09:21:00;;;;;;;7.65;3.05;;;;;;;;;;4921787;29;20520;-78
2023/06/03 09:23:26;;;;;;;6.90;2.75;;;;;;;;;;4931748;29;20034;-78
2023/06/03 09:25:52;;;;;;;7.30;2.95;;;;;;;;;;4924489;29;20047;-77
2023/06/03 09:28:17;;;;;;;7.78;3.20;;;;;;;;;;4923667;29;20083;-78
2023/06/03 09:30:43;;;;;;;8.77;2.88;;;;;;;;;;4902864;29;20055;-79
2023/06/03 09:33:09;;;;;;;8.68;3.30;;;;;;;;;;4920339;29;20665;-79
2023/06/03 09:35:35;;;;;;;6.05;3.08;;;;;;;;;;4920720;29;20119;-78
2023/06/03 09:38:04;;;;;;;6.65;3.03;;;;;;;;;;4917618;29;20032;-78
2023/06/03 09:40:31;;;;;;;9.13;3.70;;;;;;;;;;4917226;29;20083;-79
2023/06/03 09:42:57;;;;;;;6.30;3.70;;;;;;;;;;4915104;29;20391;-78
2023/06/03 09:45:31;;;;;;;6.00;2.80;;;;;;;;;;4924503;29;20068;-79
2023/06/03 09:47:58;;;;;;;9.05;3.10;;;;;;;;;;4920586;29;20036;-76
2023/06/03 09:50:26;;;;;;;5.85;2.97;;;;;;;;;;4916716;29;20031;-78
2023/06/03 09:52:52;;;;;;;9.02;3.70;;;;;;;;;;4926217;29;20024;-77
2023/06/03 09:55:19;;;;;;;10.25;3.55;;;;;;;;;;4924176;29;20035;-78
2023/06/03 09:58:08;;;;;;;6.35;3.22;;;;;;;;;;4916946;29;20032;-78
2023/06/03 10:00:48;;;;;;;5.97;3.40;;;;;;;;;;4917261;29;20432;-79
2023/06/03 10:03:15;;;;;;;10.20;3.42;;;;;;;;;;4928797;29;20051;-78
2023/06/03 10:05:41;;;;;;;7.20;3.17;;;;;;;;;;4915469;29;20032;-78
2023/06/03 10:08:07;;;;;;;6.45;3.17;;;;;;;;;;4916609;29;20035;-80
2023/06/03 10:10:33;;;;;;;5.13;3.22;;;;;;;;;;4914841;29;20139;-78
2023/06/03 10:13:17;;;;;;;5.38;2.90;;;;;;;;;;4923522;29;20491;-78
2023/06/03 10:15:42;;;;;;;8.15;3.00;;;;;;;;;;4915407;29;20040;-77
2023/06/03 10:18:08;;;;;;;9.02;3.15;;;;;;;;;;4904958;29;20020;-78
2023/06/03 10:20:37;;;;;;;8.98;3.50;;;;;;;;;;4913631;29;20036;-78
2023/06/03 10:23:04;;;;;;;9.43;3.40;;;;;;;;;;4916476;29;20032;-78
2023/06/03 10:25:33;;;;;;;7.97;3.90;;;;;;;;;;4915285;29;20754;-78
2023/06/03 10:28:03;;;;;;;6.05;3.10;;;;;;;;;;4925301;29;20040;-78
2023/06/03 10:30:30;;;;;;;9.02;3.33;;;;;;;;;;4920119;29;20068;-79
2023/06/03 10:32:58;;;;;;;9.77;3.40;;;;;;;;;;4918781;29;20028;-78
2023/06/03 10:35:26;;;;;;;7.25;3.05;;;;;;;;;;4925302;29;20051;-79
2023/06/03 10:37:52;;;;;;;11.25;3.55;;;;;;;;;;4924637;29;20063;-79
2023/06/03 10:40:18;;;;;;;8.00;3.28;;;;;;;;;;4924525;29;20063;-78
2023/06/03 10:42:44;;;;;;;10.32;3.38;;;;;;;;;;4924010;29;20047;-79
2023/06/03 10:45:11;;;;;;;15.00;3.45;;;;;;;;;;4919048;29;20032;-79
2023/06/03 10:47:40;;;;;;;5.97;3.05;;;;;;;;;;4929742;29;20106;-78
2023/06/03 10:50:32;;;;;;;4.82;2.80;;;;;;;;;;4915340;29;20028;-79
2023/06/03 10:53:06;;;;;;;5.93;3.42;;;;;;;;;;4925922;29;20044;-78
2023/06/03 10:55:52;;;;;;;5.03;2.97;;;;;;;;;;4929860;29;20153;-78
2023/06/03 10:58:20;;;;;;;6.45;3.45;;;;;;;;;;4913604;29;20047;-77
2023/06/03 11:00:59;;;;;;;6.00;3.42;;;;;;;;;;4927598;29;20447;-81
2023/06/03 11:03:27;;;;;;;5.40;3.08;;;;;;;;;;4928266;29;20036;-79
2023/06/03 11:06:13;;;;;;;7.28;3.35;;;;;;;;;;4920372;29;20039;-79
2023/06/03 11:09:02;;;;;;;10.32;3.10;;;;;;;;;;4923909;29;20035;-79
2023/06/03 11:11:58;;;;;;;7.05;3.50;;;;;;;;;;4924489;29;20016;-78
2023/06/03 11:14:24;;;;;;;6.53;3.05;;;;;;;;;;4924944;29;20403;-79
2023/06/03 11:16:58;;;;;;;6.85;3.72;;;;;;;;;;4922260;29;20078;-79
2023/06/03 11:19:46;;;;;;;8.13;3.22;;;;;;;;;;4918232;29;20135;-79
2023/06/03 11:22:13;;;;;;;4.10;3.15;;;;;;;;;;4932689;29;20059;-77
2023/06/03 11:24:38;;;;;;;7.55;3.35;;;;;;;;;;4937245;29;20035;-78
2023/06/03 11:27:09;;;;;;;5.88;3.30;;;;;;;;;;4924875;29;20078;-78
2023/06/03 11:29:48;;;;;;;;;;;;;;;;;;4919182;29;20035;-79
2023/06/03 11:32:18;;;;;;;7.38;3.40;;;;;;;;;;4927291;29;20049;-79
2023/06/03 11:34:44;;;;;;;6.67;3.07;;;;;;;;;;4929354;29;20055;-78
2023/06/03 11:37:15;;;;;;;4.20;3.28;;;;;;;;;;4924936;29;20444;-78
2023/06/03 11:40:05;;;;;;;6.10;3.30;;;;;;;;;;4915064;29;20050;-79
2023/06/03 11:42:51;;;;;;;5.15;3.03;;;;;;;;;;4916781;29;20420;-78
2023/06/03 11:45:16;;;;;;;9.88;3.55;;;;;;;;;;4907361;29;20047;-78
2023/06/03 11:47:51;;;;;;;5.28;2.95;;;;;;;;;;4917074;29;20035;-78
2023/06/03 11:50:17;;;;;;;4.85;3.35;;;;;;;;;;4918243;29;20032;-78
2023/06/03 11:52:43;;;;;;;11.07;3.85;;;;;;;;;;4928085;29;20082;-79
2023/06/03 11:55:08;;;;;;;10.20;4.03;;;;;;;;;;4927329;29;20031;-79
2023/06/03 11:57:34;;;;;;;3.95;2.72;;;;;;;;;;4923286;29;20382;-80
2023/06/03 12:00:10;;;;;;;6.72;3.45;;;;;;;;;;4921204;29;20039;-79
2023/06/03 12:02:45;;;;;;;4.22;2.95;;;;;;;;;;4927096;29;20099;-80
2023/06/03 12:05:15;;;;;;;4.32;3.10;;;;;;;;;;4923593;29;20035;-80
2023/06/03 12:07:43;;;;;;;4.82;3.00;;;;;;;;;;4914423;29;20032;-81
2023/06/03 12:10:09;;;;;;;6.22;3.42;;;;;;;;;;4917994;29;20440;-82
2023/06/03 12:12:35;;;;;;;5.38;3.45;;;;;;;;;;4913988;29;20079;-83
2023/06/03 12:15:07;;;;;;;7.50;3.10;;;;;;;;;;4919064;29;20395;-81
2023/06/03 12:17:33;;;;;;;8.40;2.88;;;;;;;;;;4922895;29;20066;-82
2023/06/03 12:19:59;;;;;;;7.35;3.30;;;;;;;;;;4918029;29;20031;-83
2023/06/03 12:22:25;;;;;;;5.57;3.33;;;;;;;;;;4927208;29;20086;-84
2023/06/03 12:24:51;;;;;;;6.40;3.38;;;;;;;;;;4928608;29;20024;-84
2023/06/03 12:27:27;;;;;;;5.10;2.88;;;;;;;;;;4922343;29;20036;-83
2023/06/03 12:29:57;;;;;;;10.23;3.70;;;;;;;;;;4920356;29;20028;-82
2023/06/03 12:32:25;;;;;;;4.95;3.40;;;;;;;;;;4917929;29;20025;-81
2023/06/03 12:34:51;;;;;;;5.18;3.30;;;;;;;;;;4919388;29;20554;-81
2023/06/03 12:37:29;;;;;;;5.72;3.35;;;;;;;;;;4921196;29;20032;-81
2023/06/03 12:39:56;;;;;;;6.97;3.30;;;;;;;;;;4923115;29;20127;-81
2023/06/03 12:42:35;;;;;;;6.63;3.30;;;;;;;;;;4918199;29;20036;-81
2023/06/03 12:45:02;;;;;;;5.20;3.13;;;;;;;;;;4921365;29;20091;-81
2023/06/03 12:47:28;;;;;;;5.13;3.33;;;;;;;;;;4913186;29;20028;-81
2023/06/03 12:50:07;;;;;;;8.70;3.40;;;;;;;;;;4922304;29;20032;-81
2023/06/03 12:52:36;;;;;;;8.80;3.25;;;;;;;;;;4928512;29;20032;-81
2023/06/03 12:55:03;;;;;;;7.55;3.67;;;;;;;;;;4929519;29;20028;-83
2023/06/03 12:57:30;;;;;;;7.20;3.60;;;;;;;;;;4926525;29;20039;-81
2023/06/03 13:00:25;;;;;;;4.22;3.22;;;;;;;;;;4929379;29;20115;-78
2023/06/03 13:02:56;;;;;;;7.00;3.03;;;;;;;;;;4921155;29;20055;-82
2023/06/03 13:05:22;;;;;;;5.57;3.20;;;;;;;;;;4923942;29;20041;-80
2023/06/03 13:07:48;;;;;;;4.55;3.05;;;;;;;;;;4917814;29;20395;-80
2023/06/03 13:10:15;;;;;;;8.98;3.10;;;;;;;;;;4924199;29;20039;-82
2023/06/03 13:12:42;;;;;;;8.18;3.50;;;;;;;;;;4923279;29;20035;-80
2023/06/03 13:15:08;;;;;;;9.50;3.38;;;;;;;;;;4926185;29;20028;-82
2023/06/03 13:17:35;;;;;;;7.80;3.10;;;;;;;;;;4928450;29;20353;-79
2023/06/03 13:20:05;;;;;;;6.90;3.33;;;;;;;;;;4927460;29;20044;-80
2023/06/03 13:22:30;;;;;;;5.68;3.55;;;;;;;;;;4941019;29;20055;-81
2023/06/03 13:24:56;;;;;;;4.75;2.97;;;;;;;;;;4931310;29;20035;-81
2023/06/03 13:27:22;;;;;;;5.18;3.47;;;;;;;;;;4925829;29;20578;-81
2023/06/03 13:29:47;;;;;;;4.95;3.33;;;;;;;;;;4921500;29;20502;-80
2023/06/03 13:32:14;;;;;;;6.85;3.25;;;;;;;;;;4928817;29;20024;-80
2023/06/03 13:34:39;;;;;;;7.53;3.42;;;;;;;;;;4937326;29;20031;-80
2023/06/03 13:37:05;;;;;;;5.22;3.17;;;;;;;;;;4937125;29;20040;-81
2023/06/03 13:39:35;;;;;;;5.72;3.30;;;;;;;;;;4931402;29;20040;-80
2023/06/03 13:42:01;;;;;;;27.77;4.47;;;;;;;;;;4924010;29;20347;-80
2023/06/03 13:44:29;;;;;;;35.55;4.65;;;;;;;;;;4926349;29;20055;-82
2023/06/03 13:46:55;;;;;;;5.72;3.35;;;;;;;;;;4922409;29;20048;-81
2023/06/03 13:49:21;;;;;;;10.43;3.42;;;;;;;;;;4920366;29;20036;-82
2023/06/03 13:51:46;;;;;;;18.33;3.97;;;;;;;;;;4919429;29;20039;-79
2023/06/03 13:54:12;;;;;;;5.32;2.88;;;;;;;;;;4928398;29;20043;-79
2023/06/03 13:56:38;;;;;;;6.10;3.40;;;;;;;;;;4931894;29;20103;-79
2023/06/03 13:59:04;;;;;;;6.28;3.30;;;;;;;;;;4929006;29;20094;-82
2023/06/03 14:01:30;;;;;;;5.88;3.13;;;;;;;;;;4926981;29;20036;-83
2023/06/03 14:03:55;;;;;;;5.22;3.20;;;;;;;;;;4930220;29;20042;-82
2023/06/03 14:06:21;;;;;;;4.32;2.97;;;;;;;;;;4940090;29;20083;-78
2023/06/03 14:08:47;;;;;;;6.15;3.53;;;;;;;;;;4927743;29;20127;-77
2023/06/03 14:11:13;;;;;;;6.82;4.65;;;;;;;;;;4924136;29;20048;-78
2023/06/03 14:13:38;;;;;;;7.97;2.92;;;;;;;;;;4926435;29;20024;-77
2023/06/03 14:16:04;;;;;;;6.93;3.05;;;;;;;;;;4926333;29;20051;-80
2023/06/03 14:18:29;;;;;;;4.93;3.05;;;;;;;;;;4917594;29;20103;-79
2023/06/03 14:20:55;;;;;;;6.32;3.42;;;;;;;;;;4923183;29;20506;-79
2023/06/03 14:23:20;;;;;;;5.68;2.97;;;;;;;;;;4933268;29;20039;-80
2023/06/03 14:25:46;;;;;;;8.85;3.28;;;;;;;;;;4918052;29;20107;-80
2023/06/03 14:28:11;;;;;;;8.93;3.00;;;;;;;;;;4916235;29;20106;-81
2023/06/03 14:30:36;;;;;;;4.72;3.05;;;;;;;;;;4915207;29;20021;-80
2023/06/03 14:33:02;;;;;;;5.20;3.15;;;;;;;;;;4925991;29;20803;-81
2023/06/03 14:35:27;;;;;;;4.22;3.08;;;;;;;;;;4916119;29;20574;-81
2023/06/03 14:37:53;;;;;;;4.90;2.90;;;;;;;;;;4917142;29;20087;-81
2023/06/03 14:40:18;;;;;;;3.83;2.88;;;;;;;;;;4921071;29;20042;-80
2023/06/03 14:42:43;;;;;;;4.47;2.95;;;;;;;;;;4921416;29;20483;-80
2023/06/03 14:45:09;;;;;;;4.13;2.95;;;;;;;;;;4920778;29;20056;-81
2023/06/03 14:47:34;;;;;;;6.80;3.35;;;;;;;;;;4916594;29;20040;-80